createdAt,value
2022-10-05T00:00:26.370Z,98400.31
2022-10-05T00:05:26.872Z,98387.50
2022-10-05T00:10:19.490Z,98377.66
2022-10-05T00:15:13.611Z,98370.28
2022-10-05T00:20:18.965Z,98369.75
2022-10-05T00:25:21.122Z,98360.22
2022-10-05T00:30:18.870Z,98355.88
2022-10-05T00:35:12.521Z,98349.56
2022-10-05T00:40:27.034Z,98334.03
2022-10-05T00:45:31.533Z,98351.22
2022-10-05T00:50:36.522Z,98326.66
2022-10-05T00:55:55.348Z,98348.19
2022-10-05T01:01:09.687Z,98336.47
2022-10-05T01:06:38.664Z,98333.47
2022-10-05T01:11:41.402Z,98332.09
2022-10-05T01:16:50.768Z,98328.00
2022-10-05T01:22:09.628Z,98318.72
2022-10-05T01:27:28.939Z,98312.13
2022-10-05T01:32:23.903Z,98309.41
2022-10-05T01:37:36.439Z,98293.31
2022-10-05T01:42:43.619Z,98276.94
2022-10-05T01:48:04.341Z,98268.75
2022-10-05T01:53:04.910Z,98250.75
2022-10-05T01:58:26.187Z,98241.75
2022-10-05T02:03:24.747Z,98234.41
2022-10-05T02:08:35.136Z,98241.75
2022-10-05T02:13:40.124Z,98228.66
2022-10-05T02:18:38.786Z,98227.00
2022-10-05T02:23:35.916Z,98213.66
2022-10-05T02:28:45.785Z,98204.91
2022-10-05T02:33:37.497Z,98187.72
2022-10-05T02:39:06.170Z,98189.31
2022-10-05T02:44:23.138Z,98159.84
2022-10-05T02:49:19.703Z,98165.03
2022-10-05T02:54:34.640Z,98151.91
2022-10-05T02:59:36.577Z,98152.44
2022-10-05T03:04:46.332Z,98131.16
2022-10-05T03:09:46.510Z,98127.84
2022-10-05T03:15:04.413Z,98124.81
2022-10-05T03:20:18.594Z,98116.06
2022-10-05T03:25:22.574Z,98111.41
2022-10-05T03:30:14.217Z,98093.09
2022-10-05T03:35:18.047Z,98095.03
2022-10-05T03:40:34.433Z,98072.38
2022-10-05T03:45:48.562Z,98063.06
2022-10-05T03:51:18.546Z,98053.00
2022-10-05T03:56:14.495Z,98035.78
2022-10-05T04:01:13.386Z,98023.25
2022-10-05T04:06:17.915Z,98023.78
2022-10-05T04:11:15.551Z,98018.03
2022-10-05T04:16:19.638Z,98008.75
2022-10-05T04:21:23.527Z,97996.19
2022-10-05T04:26:25.033Z,97989.09
2022-10-05T04:31:38.096Z,97985.84
2022-10-05T04:36:39.578Z,97966.22
2022-10-05T04:41:37.464Z,97969.75
2022-10-05T04:46:29.485Z,97946.28
2022-10-05T04:51:40.186Z,97937.06
2022-10-05T04:56:41.607Z,97938.44
2022-10-05T05:02:01.288Z,97942.25
2022-10-05T05:07:11.265Z,97921.25
2022-10-05T05:12:40.668Z,97922.88
2022-10-05T05:17:32.361Z,97914.69
2022-10-05T05:23:05.613Z,97912.78
2022-10-05T05:28:12.486Z,97890.13
2022-10-05T05:33:20.598Z,97896.41
2022-10-05T05:38:38.298Z,97879.19
2022-10-05T05:43:46.233Z,97867.19
2022-10-05T05:48:43.796Z,97874.56
2022-10-05T05:53:45.909Z,97879.16
2022-10-05T05:58:58.853Z,97879.97
2022-10-05T06:03:58.072Z,97879.88
2022-10-05T06:08:58.529Z,97880.72
2022-10-05T06:13:51.661Z,97871.94
2022-10-05T06:18:49.057Z,97858.81
2022-10-05T06:24:07.105Z,97874.59
2022-10-05T06:29:04.673Z,97867.47
2022-10-05T06:34:19.718Z,97862.00
2022-10-05T06:39:37.550Z,97866.03
2022-10-05T06:44:40.969Z,97860.00
2022-10-05T06:49:53.790Z,97861.34
2022-10-05T06:54:51.837Z,97880.66
2022-10-05T06:59:56.088Z,97899.50
2022-10-05T07:05:10.275Z,97923.78
2022-10-05T07:10:04.977Z,97934.97
2022-10-05T07:15:05.719Z,97921.59
2022-10-05T07:20:20.109Z,97927.38
2022-10-05T07:25:11.730Z,97920.91
2022-10-05T07:30:07.408Z,97911.66
2022-10-05T07:35:40.481Z,97931.34
2022-10-05T07:40:41.761Z,97931.44
2022-10-05T07:45:55.215Z,97927.06
2022-10-05T07:50:57.303Z,97932.53
2022-10-05T07:55:53.745Z,97914.28
2022-10-05T08:01:00.510Z,97934.19
2022-10-05T08:05:52.525Z,97942.38
2022-10-05T08:10:56.411Z,97942.34
2022-10-05T08:15:53.977Z,97928.13
2022-10-05T08:21:06.358Z,97939.25
2022-10-05T08:26:31.805Z,97937.88
2022-10-05T08:31:31.845Z,97924.22
2022-10-05T08:36:53.768Z,97918.19
2022-10-05T08:42:16.601Z,97918.19
2022-10-05T08:47:11.046Z,97916.53
2022-10-05T08:52:25.745Z,97911.59
2022-10-05T08:57:36.194Z,97913.22
2022-10-05T09:02:36.542Z,97954.25
2022-10-05T09:07:37.382Z,97975.75
2022-10-05T09:12:50.774Z,97973.63
2022-10-05T09:18:10.298Z,97988.50
2022-10-05T09:23:40.382Z,97990.81
2022-10-05T09:28:46.321Z,97983.00
2022-10-05T09:33:53.945Z,97997.25
2022-10-05T09:38:51.332Z,98014.97
2022-10-05T09:44:10.824Z,98019.88
2022-10-05T09:49:40.086Z,98047.97
2022-10-05T09:55:01.696Z,98040.06
2022-10-05T09:59:53.353Z,98063.47
2022-10-05T10:05:27.664Z,98080.91
2022-10-05T10:10:44.638Z,98076.84
2022-10-05T10:15:42.069Z,98094.78
2022-10-05T10:20:54.946Z,98107.31
2022-10-05T10:26:11.946Z,98110.56
2022-10-05T10:31:41.342Z,98140.50
2022-10-05T10:36:37.785Z,98151.09
2022-10-05T10:42:07.882Z,98158.19
2022-10-05T10:47:21.415Z,98155.19
2022-10-05T10:52:28.413Z,98159.28
2022-10-05T10:57:46.049Z,98186.47
2022-10-05T11:02:56.766Z,98207.16
2022-10-05T11:07:48.341Z,98196.53
2022-10-05T11:12:55.265Z,98207.13
2022-10-05T11:18:06.801Z,98192.44
2022-10-05T11:23:03.433Z,98208.53
2022-10-05T11:28:29.627Z,98217.75
2022-10-05T11:33:43.210Z,98232.19
2022-10-05T11:38:53.238Z,98227.56
2022-10-05T11:44:06.960Z,98236.03
2022-10-05T11:49:14.241Z,98243.66
2022-10-05T11:54:21.191Z,98245.53
2022-10-05T11:59:40.264Z,98249.91
2022-10-05T12:04:53.379Z,98257.25
2022-10-05T12:10:17.437Z,98267.84
2022-10-05T12:15:17.924Z,98276.53
2022-10-05T12:20:20.792Z,98270.56
2022-10-05T12:25:42.906Z,98280.91
2022-10-05T12:30:53.238Z,98271.38
2022-10-05T12:36:08.023Z,98283.09
2022-10-05T12:41:10.796Z,98284.97
2022-10-05T12:46:20.578Z,98281.72
2022-10-05T12:51:20.213Z,98288.53
2022-10-05T12:56:24.003Z,98290.72
2022-10-05T13:01:18.926Z,98283.94
2022-10-05T13:06:38.344Z,98309.53
2022-10-05T13:11:55.937Z,98312.81
2022-10-05T13:17:24.549Z,98316.06
2022-10-05T13:22:57.064Z,98341.38
2022-10-05T13:27:55.733Z,98334.84
2022-10-05T13:32:49.991Z,98340.56
2022-10-05T13:37:58.143Z,98345.47
2022-10-05T13:43:07.810Z,98342.78
2022-10-05T13:48:42.585Z,98349.91
2022-10-05T13:53:43.265Z,98339.06
2022-10-05T13:58:34.794Z,98383.47
2022-10-05T14:03:32.777Z,98401.47
2022-10-05T14:08:32.169Z,98402.53
2022-10-05T14:13:42.549Z,98417.53
2022-10-05T14:18:37.385Z,98416.44
2022-10-05T14:23:29.664Z,98419.69
2022-10-05T14:28:30.881Z,98434.38
2022-10-05T14:33:24.833Z,98422.09
2022-10-05T14:38:26.372Z,98451.16
2022-10-05T14:43:20.683Z,98439.69
2022-10-05T14:48:12.524Z,98454.91
2022-10-05T14:53:21.682Z,98474.75
2022-10-05T14:58:25.289Z,98481.00
2022-10-05T15:03:39.406Z,98479.63
2022-10-05T15:08:53.966Z,98493.47
2022-10-05T15:13:48.932Z,98487.81
2022-10-05T15:19:00.341Z,98497.44
2022-10-05T15:24:01.188Z,98509.78
2022-10-05T15:29:27.785Z,98510.59
2022-10-05T15:34:23.512Z,98516.25
2022-10-05T15:39:43.341Z,98525.75
2022-10-05T15:44:54.123Z,98539.75
2022-10-05T15:50:14.538Z,98550.16
2022-10-05T15:55:30.119Z,98567.38
2022-10-05T16:00:23.146Z,98581.47
2022-10-05T16:05:51.158Z,98593.41
2022-10-05T16:10:45.149Z,98625.47
2022-10-05T16:15:42.824Z,98626.22
2022-10-05T16:20:53.428Z,98637.38
2022-10-05T16:25:54.346Z,98661.91
2022-10-05T16:30:48.612Z,98662.19
2022-10-05T16:36:00.301Z,98677.41
2022-10-05T16:41:01.949Z,98700.75
2022-10-05T16:46:03.262Z,98721.94
2022-10-05T16:51:19.756Z,98731.63
2022-10-05T16:56:18.649Z,98733.69
2022-10-05T17:01:42.457Z,98729.25
2022-10-05T17:06:45.954Z,98759.81
2022-10-05T17:12:22.210Z,98774.94
2022-10-05T17:17:51.135Z,98788.09
2022-10-05T17:22:52.248Z,98794.47
2022-10-05T17:28:09.986Z,98809.81
2022-10-05T17:33:25.000Z,98828.94
2022-10-05T17:38:22.054Z,98849.16
2022-10-05T17:43:17.201Z,98862.59
2022-10-05T17:48:10.798Z,98894.53
2022-10-05T17:54:05.498Z,98909.59
2022-10-05T17:59:00.610Z,98925.47
2022-10-05T18:03:52.771Z,98947.34
2022-10-05T18:08:44.529Z,98959.41
2022-10-05T18:13:46.325Z,98974.09
2022-10-05T18:18:44.177Z,98984.75
2022-10-05T18:23:37.150Z,98992.78
2022-10-05T18:28:40.860Z,99002.09
2022-10-05T18:33:41.699Z,99023.38
2022-10-05T18:38:48.579Z,99021.59
2022-10-05T18:43:48.488Z,99035.28
2022-10-05T18:49:04.602Z,99055.59
2022-10-05T18:54:07.677Z,99059.34
2022-10-05T18:59:08.439Z,99075.63
2022-10-05T19:04:22.550Z,99092.72
2022-10-05T19:09:41.665Z,99105.69
2022-10-05T19:14:57.671Z,99121.00
2022-10-05T19:20:21.455Z,99123.84
2022-10-05T19:25:38.152Z,99143.53
2022-10-05T19:31:02.056Z,99146.34
2022-10-05T19:36:12.009Z,99160.69
2022-10-05T19:41:22.509Z,99151.91
2022-10-05T19:46:30.960Z,99174.50
2022-10-05T19:51:29.440Z,99188.97
2022-10-05T19:56:25.239Z,99214.03
2022-10-05T20:01:47.920Z,99213.50
2022-10-05T20:06:39.706Z,99224.88
2022-10-05T20:11:32.154Z,99232.47
2022-10-05T20:16:50.406Z,99250.84
2022-10-05T20:21:52.717Z,99252.78
2022-10-05T20:27:12.621Z,99280.31
2022-10-05T20:32:08.779Z,99293.06
2022-10-05T20:37:00.632Z,99299.16
2022-10-05T20:41:52.361Z,99312.53
2022-10-05T20:46:46.114Z,99324.03
2022-10-05T20:51:40.190Z,99334.69
2022-10-05T20:56:31.943Z,99350.31
2022-10-05T21:01:26.616Z,99374.06
2022-10-05T21:06:18.636Z,99376.41
2022-10-05T21:11:10.266Z,99391.63
2022-10-05T21:16:02.594Z,99404.56
2022-10-05T21:20:57.541Z,99419.34
2022-10-05T21:25:51.621Z,99408.94
2022-10-05T21:30:43.429Z,99437.47
2022-10-05T21:35:35.152Z,99437.09
2022-10-05T21:40:26.726Z,99449.16
2022-10-05T21:45:18.366Z,99459.59
2022-10-05T21:50:10.431Z,99481.47
2022-10-05T21:55:03.227Z,99493.75
2022-10-05T21:59:55.021Z,99505.63
2022-10-05T22:04:46.719Z,99512.72
2022-10-05T22:09:38.365Z,99535.81
2022-10-05T22:14:30.120Z,99533.53
2022-10-05T22:19:21.820Z,99549.75
2022-10-05T22:24:14.246Z,99558.94
2022-10-05T22:29:06.047Z,99565.59
2022-10-05T22:33:57.915Z,99573.09
2022-10-05T22:38:49.655Z,99585.97
2022-10-05T22:43:41.425Z,99590.75
2022-10-05T22:48:33.118Z,99586.59
2022-10-05T22:53:24.736Z,99589.31
2022-10-05T22:58:16.474Z,99592.66
2022-10-05T23:03:08.090Z,99598.66
2022-10-05T23:08:02.319Z,99606.78
2022-10-05T23:13:00.592Z,99619.47
2022-10-05T23:17:56.186Z,99623.00
2022-10-05T23:22:47.785Z,99629.44
2022-10-05T23:27:41.414Z,99635.91
2022-10-05T23:32:37.902Z,99653.59
2022-10-05T23:37:29.887Z,99670.22
2022-10-05T23:42:21.590Z,99661.91
2022-10-05T23:47:13.209Z,99668.56
2022-10-05T23:52:04.911Z,99679.59
2022-10-05T23:56:56.760Z,99686.44
